Time;durP1;ratioP1;P1;durP2;ratioP2;P2;SDS_P1;SDS_P2;PMS_P1;PMS_P2;Temp;Humidity;BMP_temperature;BMP_pressure;BME280_temperature;BME280_humidity;BME280_pressure;Samples;Min_cycle;Max_cycle;Signal;HPM_P1;HPM_P2
2022/06/16 00:02:21;;;;;;;9.87;5.10;;;22.50;56.30;;;;;;5036308;28;20224;-96
2022/06/16 00:04:54;;;;;;;9.47;5.53;;;22.40;56.40;;;;;;5038642;28;20209;-96
2022/06/16 00:07:23;;;;;;;8.33;5.47;;;22.40;56.80;;;;;;5037897;28;20661;-96
2022/06/16 00:09:53;;;;;;;13.43;6.60;;;22.40;56.60;;;;;;5035149;28;20209;-96
2022/06/16 00:12:22;;;;;;;9.80;4.90;;;22.30;56.70;;;;;;5022584;28;20302;-96
2022/06/16 00:14:53;;;;;;;12.23;6.37;;;22.30;56.80;;;;;;5017440;28;20637;-96
2022/06/16 00:17:23;;;;;;;10.93;6.37;;;22.20;57.30;;;;;;5036504;28;20222;-96
2022/06/16 00:20:05;;;;;;;10.10;5.83;;;22.30;57.00;;;;;;5037388;28;20197;-96
2022/06/16 00:22:38;;;;;;;14.03;7.20;;;22.20;56.90;;;;;;5035462;28;20232;-96
2022/06/16 00:27:58;;;;;;;14.60;6.03;;;22.20;57.40;;;;;;5025337;28;20231;-96
2022/06/16 00:30:28;;;;;;;12.93;6.77;;;22.20;57.30;;;;;;5038208;28;20208;-96
2022/06/16 00:32:58;;;;;;;12.30;6.63;;;22.20;57.30;;;;;;5028483;28;20212;-96
2022/06/16 00:35:28;;;;;;;11.67;5.87;;;22.10;57.30;;;;;;5022285;28;20240;-96
2022/06/16 00:37:58;;;;;;;13.77;7.03;;;22.10;57.30;;;;;;5035844;28;20618;-96
2022/06/16 00:40:37;;;;;;;10.47;5.87;;;22.10;57.30;;;;;;5038724;28;20278;-96
2022/06/16 00:43:14;;;;;;;15.63;7.70;;;22.10;57.40;;;;;;5036682;28;20826;-96
2022/06/16 00:45:55;;;;;;;10.67;6.30;;;22.00;57.30;;;;;;5035992;28;20210;-96
2022/06/16 00:48:30;;;;;;;13.00;7.33;;;21.90;57.80;;;;;;5034761;28;20661;-96
2022/06/16 00:51:09;;;;;;;13.23;7.27;;;21.90;57.70;;;;;;5034879;28;20287;-96
2022/06/16 00:53:41;;;;;;;14.70;7.10;;;21.90;57.80;;;;;;5026378;28;20210;-96
2022/06/16 00:56:16;;;;;;;11.03;6.80;;;21.90;58.00;;;;;;5040538;28;20209;-95
2022/06/16 00:59:09;;;;;;;10.50;6.47;;;21.80;57.90;;;;;;5040209;28;20652;-96
2022/06/16 01:01:42;;;;;;;11.90;6.57;;;21.70;58.10;;;;;;5037252;28;20219;-96
2022/06/16 01:07:15;;;;;;;9.83;6.17;;;21.70;57.90;;;;;;5042065;28;20210;-96
2022/06/16 01:09:47;;;;;;;9.03;5.60;;;21.60;58.40;;;;;;5044801;28;20258;-96
2022/06/16 01:15:29;;;;;;;10.33;5.90;;;21.60;58.30;;;;;;5042481;28;20207;-96
2022/06/16 01:18:08;;;;;;;8.70;6.00;;;21.50;58.20;;;;;;5044151;28;20225;-96
2022/06/16 01:20:45;;;;;;;13.07;6.70;;;21.50;58.40;;;;;;5032869;28;20214;-96
2022/06/16 01:23:58;;;;;;;7.57;5.63;;;21.40;58.30;;;;;;5033449;28;20201;-96
2022/06/16 01:26:53;;;;;;;7.67;5.33;;;21.40;58.70;;;;;;5039491;28;20254;-96
2022/06/16 01:29:36;;;;;;;12.17;6.47;;;21.40;58.70;;;;;;5016200;28;20200;-96
2022/06/16 01:32:20;;;;;;;10.97;6.17;;;21.40;58.50;;;;;;5057222;28;20184;-96
2022/06/16 01:34:56;;;;;;;9.10;6.07;;;21.40;58.70;;;;;;5056886;28;20189;-96
2022/06/16 01:37:30;;;;;;;11.33;6.53;;;21.40;58.50;;;;;;5035929;28;20276;-96
2022/06/16 01:40:16;;;;;;;12.43;7.17;;;21.30;58.40;;;;;;5041275;28;20249;-96
2022/06/16 01:42:50;;;;;;;11.77;6.63;;;21.30;58.60;;;;;;5045075;28;20220;-96
2022/06/16 01:45:23;;;;;;;13.83;7.63;;;21.30;58.50;;;;;;5048741;28;20211;-96
2022/06/16 01:47:52;;;;;;;11.70;6.50;;;21.20;58.60;;;;;;5039319;28;20253;-96
2022/06/16 01:50:25;;;;;;;13.30;7.57;;;21.20;58.50;;;;;;5046156;28;20205;-96
2022/06/16 01:52:56;;;;;;;10.07;6.47;;;21.20;58.60;;;;;;5051046;28;20214;-96
2022/06/16 01:55:42;;;;;;;13.80;7.80;;;21.20;58.60;;;;;;5033536;28;20213;-96
2022/06/16 01:58:25;;;;;;;12.10;6.63;;;21.10;58.60;;;;;;5040981;28;20216;-96
2022/06/16 02:01:00;;;;;;;11.13;7.00;;;21.10;58.90;;;;;;5038364;28;20255;-96
2022/06/16 02:03:34;;;;;;;12.10;6.67;;;21.10;58.70;;;;;;5036172;28;20268;-96
2022/06/16 02:06:10;;;;;;;12.40;7.03;;;21.10;58.70;;;;;;5038542;28;20228;-96
2022/06/16 02:08:42;;;;;;;13.80;7.60;;;21.00;58.70;;;;;;5037989;28;20211;-96
2022/06/16 02:11:15;;;;;;;10.90;6.40;;;21.00;58.70;;;;;;5017331;28;20244;-94
2022/06/16 02:13:52;;;;;;;12.00;7.17;;;20.90;58.70;;;;;;5013921;28;20194;-94
2022/06/16 02:16:25;;;;;;;15.93;8.33;;;20.90;58.90;;;;;;5035457;28;20270;-96
2022/06/16 02:18:55;;;;;;;15.27;8.03;;;20.80;58.90;;;;;;5047339;28;20262;-96
2022/06/16 02:21:28;;;;;;;15.33;7.07;;;20.80;58.80;;;;;;5042629;28;20271;-96
2022/06/16 02:23:57;;;;;;;13.73;7.57;;;20.80;59.00;;;;;;5039523;28;20208;-96
2022/06/16 02:26:25;;;;;;;10.93;7.00;;;20.70;58.80;;;;;;5037194;28;20309;-96
2022/06/16 02:29:00;;;;;;;9.70;6.40;;;20.70;58.80;;;;;;5036408;28;20585;-96
2022/06/16 02:31:51;;;;;;;14.53;7.13;;;20.60;59.00;;;;;;5020098;28;20204;-96
2022/06/16 02:34:25;;;;;;;16.53;8.80;;;20.60;59.40;;;;;;5021708;28;20201;-96
2022/06/16 02:37:27;;;;;;;15.13;6.87;;;20.60;59.20;;;;;;5038419;28;20205;-96
2022/06/16 02:40:09;;;;;;;15.07;7.63;;;20.50;59.60;;;;;;5027185;28;20200;-96
2022/06/16 02:42:51;;;;;;;14.97;7.27;;;20.50;59.50;;;;;;5039334;28;20651;-96
2022/06/16 02:45:26;;;;;;;9.43;7.10;;;20.50;59.60;;;;;;5038664;28;20284;-96
2022/06/16 02:48:03;;;;;;;15.23;8.53;;;20.50;59.60;;;;;;5039959;28;20219;-96
2022/06/16 02:50:46;;;;;;;15.30;8.30;;;20.50;59.50;;;;;;5039081;28;20200;-96
2022/06/16 02:53:26;;;;;;;13.10;7.20;;;20.40;59.60;;;;;;5019423;28;20276;-96
2022/06/16 02:56:00;;;;;;;11.03;7.37;;;20.40;59.60;;;;;;5020639;28;20213;-96
2022/06/16 02:58:32;;;;;;;14.63;8.33;;;20.30;59.40;;;;;;5036779;28;20267;-96
2022/06/16 03:01:03;;;;;;;17.07;8.80;;;20.30;59.50;;;;;;5039314;28;20208;-96
2022/06/16 03:03:34;;;;;;;11.80;7.57;;;20.30;59.70;;;;;;5034628;28;20255;-96
2022/06/16 03:06:02;;;;;;;13.03;8.00;;;20.20;59.70;;;;;;5038723;28;20210;-96
2022/06/16 03:08:43;;;;;;;14.67;8.53;;;20.20;59.70;;;;;;5031299;28;20215;-96
2022/06/16 03:11:24;;;;;;;15.73;8.03;;;20.20;60.20;;;;;;5035121;28;20213;-96
2022/06/16 03:13:55;;;;;;;14.43;8.90;;;20.20;59.80;;;;;;5038288;28;20224;-96
2022/06/16 03:16:25;;;;;;;19.80;9.80;;;20.10;60.00;;;;;;5037926;28;20222;-95
2022/06/16 03:21:42;;;;;;;8.20;7.23;;;20.10;60.10;;;;;;5027791;28;20346;-94
2022/06/16 03:24:11;;;;;;;11.07;7.87;;;20.10;60.00;;;;;;5042405;28;20229;-96
2022/06/16 03:26:48;;;;;;;15.00;8.13;;;20.10;60.00;;;;;;5040468;28;20223;-96
2022/06/16 03:29:16;;;;;;;12.10;8.30;;;20.00;60.30;;;;;;5040719;28;20261;-95
2022/06/16 03:31:45;;;;;;;13.73;7.47;;;20.00;60.00;;;;;;5016893;28;20202;-95
2022/06/16 03:34:25;;;;;;;18.27;9.90;;;20.00;60.20;;;;;;5020980;28;20220;-95
2022/06/16 03:36:53;;;;;;;11.80;7.90;;;20.00;60.80;;;;;;5017047;28;20205;-95
2022/06/16 03:39:32;;;;;;;16.53;9.87;;;19.90;60.20;;;;;;5016722;28;20216;-96
2022/06/16 03:42:04;;;;;;;11.63;7.37;;;19.90;60.80;;;;;;5029261;28;20304;-96
2022/06/16 03:44:32;;;;;;;13.50;8.50;;;19.90;60.60;;;;;;5036141;28;20645;-95
2022/06/16 03:47:00;;;;;;;13.30;8.53;;;19.80;60.40;;;;;;5036828;28;20204;-95
2022/06/16 03:49:29;;;;;;;15.77;8.83;;;19.80;60.50;;;;;;5035605;28;20213;-96
2022/06/16 03:51:57;;;;;;;16.47;9.03;;;19.80;60.60;;;;;;5039161;28;20291;-96
2022/06/16 03:54:26;;;;;;;14.40;8.23;;;19.80;60.60;;;;;;5036500;28;20297;-96
2022/06/16 03:56:54;;;;;;;12.40;8.43;;;19.80;60.70;;;;;;5033688;28;20211;-96
2022/06/16 03:59:22;;;;;;;13.07;8.17;;;19.70;60.70;;;;;;5035888;28;20261;-96
2022/06/16 04:01:58;;;;;;;16.57;8.23;;;19.70;60.70;;;;;;5035859;28;20557;-96
2022/06/16 04:04:28;;;;;;;14.83;9.83;;;19.70;61.10;;;;;;5035669;28;20627;-96
2022/06/16 04:06:57;;;;;;;9.80;8.20;;;19.70;60.90;;;;;;5016386;28;20727;-96
2022/06/16 04:09:30;;;;;;;10.50;7.70;;;19.70;61.40;;;;;;5029723;28;20306;-96
2022/06/16 04:11:59;;;;;;;10.23;8.17;;;19.70;61.60;;;;;;5023590;28;20252;-96
2022/06/16 04:14:26;;;;;;;13.27;8.20;;;19.70;61.40;;;;;;5023694;28;20278;-96
2022/06/16 04:16:57;;;;;;;12.80;8.47;;;19.60;61.40;;;;;;5035129;28;20200;-96
2022/06/16 04:19:25;;;;;;;17.63;8.93;;;19.60;61.50;;;;;;5032634;28;20635;-96
2022/06/16 04:22:00;;;;;;;12.83;8.33;;;19.60;61.70;;;;;;5036037;28;20642;-96
2022/06/16 04:24:31;;;;;;;15.37;8.20;;;19.60;62.10;;;;;;5036011;28;20207;-96
2022/06/16 04:26:59;;;;;;;15.57;8.20;;;19.60;61.80;;;;;;5033474;28;20212;-96
2022/06/16 04:29:29;;;;;;;25.37;11.30;;;19.60;61.80;;;;;;5027375;28;20218;-96
2022/06/16 04:31:57;;;;;;;18.90;9.77;;;19.60;62.20;;;;;;5032656;28;20298;-96
2022/06/16 04:34:24;;;;;;;22.57;11.00;;;19.60;62.10;;;;;;5032482;28;20205;-96
2022/06/16 04:36:51;;;;;;;17.23;9.97;;;19.60;62.40;;;;;;5032743;28;20205;-96
2022/06/16 04:39:29;;;;;;;19.20;9.40;;;19.60;62.40;;;;;;5030775;28;20236;-96
2022/06/16 04:41:56;;;;;;;16.57;9.20;;;19.60;62.70;;;;;;5035290;28;20209;-96
2022/06/16 04:44:23;;;;;;;15.70;8.33;;;19.60;62.40;;;;;;5036674;28;20208;-95
2022/06/16 04:46:50;;;;;;;14.30;8.40;;;19.60;62.60;;;;;;5032925;28;20638;-96
2022/06/16 04:49:20;;;;;;;20.90;9.87;;;19.60;62.70;;;;;;5032273;28;20228;-95
2022/06/16 04:51:51;;;;;;;11.73;7.93;;;19.60;62.80;;;;;;5033771;28;20228;-96
2022/06/16 04:54:22;;;;;;;15.50;8.67;;;19.70;63.20;;;;;;5034656;28;20553;-96
2022/06/16 04:56:51;;;;;;;13.67;8.63;;;19.70;63.10;;;;;;5032708;28;20716;-96
2022/06/16 04:59:18;;;;;;;12.47;7.43;;;19.80;63.50;;;;;;5034533;28;20257;-96
2022/06/16 05:01:49;;;;;;;15.40;8.23;;;19.80;63.30;;;;;;5035365;28;20216;-96
2022/06/16 05:04:16;;;;;;;15.23;8.70;;;19.80;63.60;;;;;;5034472;28;20232;-96
2022/06/16 05:06:44;;;;;;;12.60;7.63;;;19.80;63.30;;;;;;5033350;28;20200;-96
2022/06/16 05:09:17;;;;;;;9.97;7.20;;;19.90;63.50;;;;;;5036549;28;20213;-95
2022/06/16 05:11:44;;;;;;;12.47;7.90;;;19.90;64.00;;;;;;5034844;28;20821;-96
2022/06/16 05:14:21;;;;;;;13.83;7.63;;;20.00;63.50;;;;;;5033406;28;20666;-96
2022/06/16 05:16:51;;;;;;;12.17;7.60;;;20.00;64.10;;;;;;5034073;28;20211;-96
2022/06/16 05:19:18;;;;;;;14.77;8.30;;;20.00;63.80;;;;;;5013682;28;20201;-95
2022/06/16 05:21:46;;;;;;;12.60;7.53;;;20.10;63.60;;;;;;5039825;28;20209;-96
2022/06/16 05:24:15;;;;;;;19.17;8.80;;;20.10;63.50;;;;;;5044670;28;20699;-94
2022/06/16 05:26:43;;;;;;;14.53;8.50;;;20.20;63.70;;;;;;5040669;28;20280;-96
2022/06/16 05:29:11;;;;;;;10.43;6.20;;;20.20;63.40;;;;;;5036447;28;20753;-94
2022/06/16 05:31:40;;;;;;;11.80;7.30;;;20.30;63.40;;;;;;5027347;28;21101;-96
2022/06/16 05:34:08;;;;;;;18.17;7.77;;;20.30;63.30;;;;;;5019153;28;20212;-96
2022/06/16 05:36:36;;;;;;;10.77;6.93;;;20.30;63.20;;;;;;5034850;28;20262;-95
2022/06/16 05:39:05;;;;;;;11.93;6.60;;;20.40;63.20;;;;;;5022672;28;20205;-96
2022/06/16 05:41:32;;;;;;;14.70;7.00;;;20.40;63.00;;;;;;5013288;28;20216;-96
2022/06/16 05:43:59;;;;;;;11.20;6.63;;;20.50;63.00;;;;;;5030246;28;20240;-96
2022/06/16 05:46:26;;;;;;;14.93;7.67;;;20.50;62.80;;;;;;5035054;28;20239;-96
2022/06/16 05:48:55;;;;;;;13.20;6.43;;;20.50;62.70;;;;;;5040995;28;20196;-96
2022/06/16 05:51:23;;;;;;;10.70;6.13;;;20.60;62.70;;;;;;5041643;28;20211;-95
2022/06/16 05:53:55;;;;;;;10.43;6.30;;;20.60;62.50;;;;;;5040284;28;20241;-96
2022/06/16 05:56:29;;;;;;;11.60;6.17;;;20.70;62.70;;;;;;5033310;28;20208;-95
2022/06/16 05:59:08;;;;;;;15.17;7.07;;;20.70;62.70;;;;;;5033864;28;20291;-96
2022/06/16 06:01:41;;;;;;;11.67;6.00;;;20.80;62.50;;;;;;5029685;28;20239;-96
2022/06/16 06:04:16;;;;;;;11.33;6.10;;;20.80;62.30;;;;;;5026669;28;20287;-95
2022/06/16 06:06:45;;;;;;;11.67;6.27;;;20.90;62.30;;;;;;5014072;28;20211;-96
2022/06/16 06:17:33;;;;;;;12.47;6.57;;;21.10;61.80;;;;;;5026392;28;20681;-96
2022/06/16 06:20:04;;;;;;;13.37;6.47;;;21.10;61.50;;;;;;5012798;28;20661;-95
2022/06/16 06:22:31;;;;;;;15.63;7.47;;;21.20;61.40;;;;;;5013244;28;20267;-95
2022/06/16 06:25:00;;;;;;;12.87;7.40;;;21.20;61.30;;;;;;5011097;28;20216;-95
2022/06/16 06:27:33;;;;;;;14.60;7.63;;;21.20;61.30;;;;;;5011623;28;20208;-96
2022/06/16 06:30:04;;;;;;;12.57;7.20;;;21.30;61.40;;;;;;5019393;28;20219;-96
2022/06/16 06:32:32;;;;;;;14.20;7.30;;;21.30;61.10;;;;;;5030326;28;20211;-96
2022/06/16 06:34:59;;;;;;;11.90;7.13;;;21.40;61.10;;;;;;5031682;28;20536;-96
2022/06/16 06:37:30;;;;;;;12.27;6.50;;;21.40;61.10;;;;;;5016168;28;20281;-96
2022/06/16 06:39:57;;;;;;;17.30;8.00;;;21.50;61.10;;;;;;5034415;28;20243;-96
2022/06/16 06:42:26;;;;;;;12.83;7.03;;;21.50;60.90;;;;;;5032566;28;20208;-94
2022/06/16 06:44:53;;;;;;;11.50;6.73;;;21.60;60.70;;;;;;5031403;28;20263;-96
2022/06/16 06:47:23;;;;;;;19.90;7.50;;;21.60;60.60;;;;;;5033505;28;20208;-94
2022/06/16 06:49:51;;;;;;;11.60;6.47;;;21.70;60.70;;;;;;5033164;28;20799;-95
2022/06/16 06:52:27;;;;;;;13.70;7.50;;;21.70;60.30;;;;;;5015931;28;20200;-93
2022/06/16 06:55:01;;;;;;;9.70;6.50;;;21.80;60.40;;;;;;5024996;28;20570;-93
2022/06/16 06:57:34;;;;;;;9.97;6.00;;;21.90;60.40;;;;;;5019658;28;20213;-96
2022/06/16 07:00:13;;;;;;;10.43;6.97;;;21.90;60.40;;;;;;5024047;28;20204;-95
2022/06/16 07:02:41;;;;;;;10.17;6.43;;;21.90;60.30;;;;;;5024621;28;20193;-96
2022/06/16 07:05:12;;;;;;;12.20;6.63;;;22.00;60.50;;;;;;5002970;28;20225;-95
2022/06/16 07:07:46;;;;;;;9.70;6.40;;;22.00;60.20;;;;;;5023812;28;20342;-93
2022/06/16 07:10:16;;;;;;;22.90;9.33;;;22.20;60.40;;;;;;5018640;28;20291;-96
2022/06/16 07:12:43;;;;;;;13.03;6.93;;;22.20;60.40;;;;;;5017266;28;20226;-94
2022/06/16 07:15:12;;;;;;;19.10;8.30;;;22.30;60.50;;;;;;5016730;28;20221;-96
2022/06/16 07:17:45;;;;;;;12.73;7.07;;;22.30;60.40;;;;;;5019846;28;20274;-96
2022/06/16 07:20:16;;;;;;;15.70;8.37;;;22.30;59.90;;;;;;5020504;28;20215;-95
2022/06/16 07:22:46;;;;;;;13.07;7.07;;;22.40;60.10;;;;;;5018713;28;20204;-96
2022/06/16 07:25:20;;;;;;;15.97;7.67;;;22.50;60.10;;;;;;5017309;28;20198;-94
2022/06/16 07:27:47;;;;;;;10.97;6.80;;;22.50;60.10;;;;;;5017919;28;20251;-96
2022/06/16 07:30:18;;;;;;;10.93;6.73;;;22.60;60.00;;;;;;5018297;28;20198;-96
2022/06/16 07:32:47;;;;;;;12.53;7.23;;;22.60;59.70;;;;;;5017585;28;20205;-96
2022/06/16 07:35:23;;;;;;;15.47;7.40;;;22.70;59.70;;;;;;5018381;28;20197;-96
2022/06/16 07:37:53;;;;;;;16.53;8.40;;;22.80;59.40;;;;;;5024631;28;20678;-96
2022/06/16 07:40:22;;;;;;;15.73;7.77;;;22.80;59.50;;;;;;5023989;28;20204;-96
2022/06/16 07:42:56;;;;;;;8.23;5.47;;;22.90;59.20;;;;;;5023714;28;20201;-95
2022/06/16 07:45:25;;;;;;;8.33;5.60;;;23.00;59.40;;;;;;5025875;28;20204;-96
2022/06/16 07:48:06;;;;;;;10.67;6.33;;;23.10;59.40;;;;;;5031132;28;20207;-96
2022/06/16 07:50:40;;;;;;;11.60;6.63;;;23.10;58.90;;;;;;5023353;28;20203;-96
2022/06/16 07:53:09;;;;;;;9.63;6.03;;;23.20;59.30;;;;;;5022436;28;20202;-96
2022/06/16 08:00:53;;;;;;;9.63;5.50;;;23.40;59.10;;;;;;5066627;23;20261;-95
2022/06/16 08:03:26;;;;;;;8.67;5.63;;;23.50;58.00;;;;;;5079088;28;20214;-95
2022/06/16 08:05:54;;;;;;;10.57;6.27;;;23.60;58.50;;;;;;5096685;22;20262;-96
2022/06/16 08:08:23;;;;;;;17.30;7.57;;;23.70;58.60;;;;;;5098038;28;20172;-96
2022/06/16 08:10:52;;;;;;;14.10;6.70;;;23.80;58.50;;;;;;5095072;28;20661;-96
2022/06/16 08:15:56;;;;;;;14.57;7.27;;;23.90;58.10;;;;;;5188445;22;20235;-92
2022/06/16 08:20:54;;;;;;;11.70;6.77;;;24.10;57.40;;;;;;5073231;22;20294;-93
2022/06/16 08:23:28;;;;;;;10.97;7.50;;;24.10;56.50;;;;;;5060138;28;20295;-96
2022/06/16 08:29:25;;;;;;;9.20;5.17;;;24.30;57.30;;;;;;5072291;22;20270;-96
2022/06/16 08:34:42;;;;;;;12.97;5.27;;;24.50;56.70;;;;;;5075224;22;20242;-96
2022/06/16 08:41:21;;;;;;;8.03;3.50;;;24.80;56.50;;;;;;5055679;28;20235;-96
2022/06/16 08:52:37;;;;;;;10.67;5.37;;;25.70;55.90;;;;;;5063416;28;20223;-94
2022/06/16 08:58:22;;;;;;;9.03;3.90;;;26.20;53.90;;;;;;5117183;22;20234;-96
2022/06/16 09:03:47;;;;;;;13.23;5.50;;;26.60;53.90;;;;;;5070260;28;20238;-96
2022/06/16 09:06:36;;;;;;;9.97;5.17;;;26.80;53.30;;;;;;5072390;28;20203;-96
2022/06/16 09:12:15;;;;;;;8.67;4.43;;;27.10;50.70;;;;;;5067675;22;20229;-96
2022/06/16 09:15:13;;;;;;;11.03;4.43;;;27.30;52.00;;;;;;5068764;23;20299;-96
2022/06/16 09:18:17;;;;;;;14.93;7.27;;;27.50;51.40;;;;;;5042138;28;20209;-96
2022/06/16 09:21:08;;;;;;;7.60;4.50;;;27.70;51.40;;;;;;5040283;28;20204;-96
2022/06/16 09:23:48;;;;;;;17.60;7.90;;;27.80;51.40;;;;;;5032557;28;20228;-96
2022/06/16 09:29:33;;;;;;;14.17;8.03;;;28.20;51.00;;;;;;5057461;28;20223;-96
2022/06/16 09:32:16;;;;;;;11.17;5.67;;;28.30;49.70;;;;;;5059913;28;20222;-96
2022/06/16 09:35:07;;;;;;;10.33;5.07;;;28.40;49.50;;;;;;5071276;28;20631;-96
2022/06/16 09:38:43;;;;;;;10.43;5.27;;;28.60;49.10;;;;;;5061438;28;20277;-96
2022/06/16 09:47:05;;;;;;;5.53;3.60;;;29.00;48.80;;;;;;5062717;28;20223;-96
2022/06/16 09:49:42;;;;;;;8.87;3.70;;;29.20;48.70;;;;;;5061636;28;20200;-96
2022/06/16 09:52:15;;;;;;;7.93;4.00;;;29.30;48.20;;;;;;5068958;28;20225;-96
2022/06/16 09:54:51;;;;;;;7.80;4.67;;;29.40;47.90;;;;;;5065321;28;20220;-96
2022/06/16 09:57:22;;;;;;;8.53;4.53;;;29.50;48.50;;;;;;5061411;28;20641;-96
2022/06/16 10:00:01;;;;;;;6.30;3.50;;;29.60;48.00;;;;;;5055283;28;20207;-96
2022/06/16 10:02:35;;;;;;;9.67;5.10;;;29.80;48.10;;;;;;5054840;28;20234;-96
2022/06/16 10:05:14;;;;;;;10.07;4.90;;;29.90;47.60;;;;;;5055373;28;20715;-96
2022/06/16 10:07:50;;;;;;;10.17;4.87;;;30.10;47.50;;;;;;5054926;28;20204;-96
2022/06/16 10:10:31;;;;;;;9.18;6.50;;;30.20;47.40;;;;;;5058122;28;20636;-96
2022/06/16 10:13:20;;;;;;;7.80;4.40;;;30.30;46.00;;;;;;5064629;28;20220;-96
2022/06/16 10:16:04;;;;;;;7.53;4.13;;;30.40;45.80;;;;;;5061534;28;20218;-96
2022/06/16 10:18:34;;;;;;;8.88;5.03;;;30.50;44.80;;;;;;5055446;28;20291;-96
2022/06/16 10:29:56;;;;;;;9.87;4.03;;;30.80;44.20;;;;;;5048886;28;20224;-96
2022/06/16 10:32:45;;;;;;;7.57;4.10;;;30.90;44.10;;;;;;5055639;28;20498;-96
2022/06/16 10:35:17;;;;;;;6.07;3.60;;;30.90;43.70;;;;;;5099878;23;20228;-96
2022/06/16 10:38:05;;;;;;;7.63;3.90;;;31.00;43.90;;;;;;5062186;28;20216;-96
2022/06/16 10:40:52;;;;;;;4.78;2.95;;;31.00;43.70;;;;;;5097665;23;20303;-95
2022/06/16 10:43:29;;;;;;;6.20;3.63;;;31.10;42.90;;;;;;5042393;28;20223;-94
2022/06/16 10:46:09;;;;;;;8.68;4.22;;;31.20;43.30;;;;;;5041013;28;20303;-93
2022/06/16 10:48:51;;;;;;;5.13;3.22;;;31.30;42.90;;;;;;5057963;23;20231;-94
2022/06/16 10:51:31;;;;;;;8.05;3.50;;;31.40;43.30;;;;;;5057732;28;20203;-94
2022/06/16 10:54:57;;;;;;;5.93;3.53;;;31.50;43.10;;;;;;5060593;28;20256;-96
2022/06/16 10:57:59;;;;;;;7.50;3.63;;;31.60;41.80;;;;;;5049772;28;20207;-96
2022/06/16 11:00:30;;;;;;;7.75;4.57;;;31.70;40.80;;;;;;5054742;28;20571;-96
2022/06/16 11:03:38;;;;;;;5.65;3.75;;;31.80;41.60;;;;;;5053872;28;20277;-95
2022/06/16 11:09:15;;;;;;;5.95;3.67;;;31.90;42.30;;;;;;5050079;28;20239;-95
2022/06/16 11:11:59;;;;;;;6.28;3.72;;;31.90;42.40;;;;;;5059960;28;20296;-94
2022/06/16 11:14:58;;;;;;;5.15;3.53;;;32.00;39.70;;;;;;5056957;28;20231;-94
2022/06/16 11:17:31;;;;;;;6.03;3.45;;;32.10;40.30;;;;;;5067926;28;20218;-94
2022/06/16 11:20:03;;;;;;;5.82;3.58;;;32.20;40.40;;;;;;5066983;28;20249;-96
2022/06/16 11:22:35;;;;;;;7.35;3.95;;;32.20;40.00;;;;;;5050595;28;20223;-96
2022/06/16 11:25:08;;;;;;;7.40;3.67;;;32.30;40.60;;;;;;5045245;28;20668;-96
2022/06/16 11:27:41;;;;;;;6.65;3.25;;;32.40;40.00;;;;;;5052287;28;20238;-96
2022/06/16 11:30:36;;;;;;;6.18;3.78;;;32.50;39.10;;;;;;5053353;28;20200;-96
2022/06/16 11:33:09;;;;;;;5.03;2.65;;;32.60;38.60;;;;;;5048864;28;20184;-96
2022/06/16 11:36:02;;;;;;;7.03;3.85;;;32.70;39.20;;;;;;5054284;28;20585;-92
2022/06/16 11:38:38;;;;;;;5.03;3.10;;;32.70;37.40;;;;;;5065622;28;20225;-96
2022/06/16 11:44:16;;;;;;;9.43;4.13;;;32.80;38.30;;;;;;5059724;28;20245;-96
2022/06/16 11:46:55;;;;;;;8.02;4.28;;;32.90;38.80;;;;;;5048861;28;21155;-96
2022/06/16 11:49:55;;;;;;;9.45;3.92;;;32.90;38.00;;;;;;5051102;28;20204;-96
2022/06/16 11:52:30;;;;;;;7.50;3.88;;;33.00;38.50;;;;;;5045366;28;20203;-96
2022/06/16 11:55:19;;;;;;;6.22;3.92;;;33.10;38.80;;;;;;5049623;28;20974;-96
2022/06/16 11:57:54;;;;;;;10.23;5.35;;;33.20;37.60;;;;;;5051801;28;20266;-96
2022/06/16 12:00:27;;;;;;;4.50;2.97;;;33.30;37.60;;;;;;5045680;28;20192;-96
2022/06/16 12:03:20;;;;;;;4.38;3.05;;;33.40;37.80;;;;;;5049005;28;20200;-95
2022/06/16 12:06:09;;;;;;;3.95;2.78;;;33.40;38.00;;;;;;5053607;28;20220;-95
2022/06/16 12:08:55;;;;;;;7.30;4.30;;;33.50;37.30;;;;;;5042366;28;20200;-95
2022/06/16 12:11:31;;;;;;;5.45;3.47;;;33.50;36.80;;;;;;5051126;28;20228;-95
2022/06/16 12:14:22;;;;;;;8.57;4.28;;;33.60;37.10;;;;;;5054306;28;20196;-95
2022/06/16 12:16:58;;;;;;;7.82;3.92;;;33.60;37.10;;;;;;5059377;28;20204;-94
2022/06/16 12:19:37;;;;;;;9.75;4.78;;;33.60;36.80;;;;;;5058179;28;20327;-95
2022/06/16 12:22:14;;;;;;;9.45;4.75;;;33.60;36.50;;;;;;5055349;28;20208;-94
2022/06/16 12:24:51;;;;;;;9.40;4.35;;;33.70;36.40;;;;;;5054204;28;20350;-94
2022/06/16 12:27:27;;;;;;;4.10;2.85;;;33.60;36.50;;;;;;5038751;28;20216;-95
2022/06/16 12:30:02;;;;;;;10.00;3.88;;;33.70;36.60;;;;;;5041515;28;20200;-95
2022/06/16 12:32:41;;;;;;;5.75;3.95;;;33.70;36.70;;;;;;5056303;28;20224;-96
2022/06/16 12:35:18;;;;;;;5.65;3.08;;;33.60;36.50;;;;;;5055722;28;20207;-94
2022/06/16 12:52:50;;;;;;;8.27;4.32;;;33.90;37.10;;;;;;5192890;22;20241;-96
2022/06/16 13:01:27;;;;;;;8.18;4.45;;;34.00;36.40;;;;;;5081832;28;20287;-96
2022/06/16 13:04:13;;;;;;;9.18;4.43;;;34.10;35.70;;;;;;5077907;28;20196;-96
2022/06/16 13:06:55;;;;;;;4.63;3.17;;;34.10;35.80;;;;;;5066939;28;20192;-96
2022/06/16 13:09:25;;;;;;;14.13;6.88;;;34.10;35.10;;;;;;5079518;22;20250;-96
2022/06/16 13:12:05;;;;;;;4.68;3.45;;;34.10;36.00;;;;;;5055035;28;20201;-96
2022/06/16 13:14:36;;;;;;;9.38;5.25;;;34.00;34.80;;;;;;5058019;28;20206;-94
2022/06/16 13:17:10;;;;;;;6.78;3.25;;;34.00;35.20;;;;;;5047666;28;20216;-93
2022/06/16 13:19:43;;;;;;;5.50;3.38;;;33.90;34.60;;;;;;5051982;28;20204;-95
2022/06/16 13:22:28;;;;;;;10.13;4.47;;;33.90;35.20;;;;;;5043157;28;20614;-94
2022/06/16 13:25:00;;;;;;;8.80;3.90;;;33.80;35.10;;;;;;5030841;28;20994;-95
2022/06/16 13:27:32;;;;;;;6.28;3.67;;;33.80;34.30;;;;;;5037661;28;20208;-92
2022/06/16 13:30:18;;;;;;;9.73;4.15;;;33.80;35.10;;;;;;5049830;28;20269;-92
2022/06/16 13:33:18;;;;;;;7.13;3.50;;;33.80;35.00;;;;;;5048473;28;20211;-93
2022/06/16 13:35:53;;;;;;;9.48;5.07;;;33.80;35.40;;;;;;5046935;28;20208;-92
2022/06/16 13:38:43;;;;;;;8.23;4.78;;;33.80;35.20;;;;;;5050302;28;20200;-92
2022/06/16 13:41:36;;;;;;;5.07;3.40;;;33.80;34.80;;;;;;5047005;28;20242;-95
2022/06/16 13:44:26;;;;;;;7.22;3.95;;;33.80;35.10;;;;;;5047895;28;20257;-93
2022/06/16 13:47:25;;;;;;;6.38;3.63;;;33.90;34.80;;;;;;5028877;28;20209;-93
2022/06/16 13:50:10;;;;;;;6.18;3.53;;;33.90;34.80;;;;;;5039463;28;20207;-93
2022/06/16 13:52:41;;;;;;;13.00;5.28;;;33.90;34.00;;;;;;5057807;28;20196;-92
2022/06/16 13:55:25;;;;;;;6.57;4.05;;;33.90;34.50;;;;;;5049781;28;20215;-94
2022/06/16 13:58:17;;;;;;;6.00;3.78;;;33.90;34.00;;;;;;5059130;28;20239;-93
2022/06/16 14:00:47;;;;;;;4.45;3.08;;;33.90;34.00;;;;;;5048498;28;20232;-94
2022/06/16 14:03:22;;;;;;;9.13;5.07;;;33.90;34.30;;;;;;5033860;28;20208;-94
2022/06/16 14:06:02;;;;;;;6.60;3.72;;;33.90;34.20;;;;;;5041716;28;20299;-94
2022/06/16 14:08:30;;;;;;;6.63;3.95;;;33.80;34.20;;;;;;5033809;28;20208;-95
2022/06/16 14:11:21;;;;;;;6.60;3.55;;;33.80;34.20;;;;;;5051346;28;20227;-94
2022/06/16 14:14:09;;;;;;;5.97;3.38;;;33.90;34.40;;;;;;5049156;28;20210;-95
2022/06/16 14:16:39;;;;;;;5.95;3.33;;;33.90;34.80;;;;;;5054069;28;20212;-96
2022/06/16 14:19:27;;;;;;;8.35;4.10;;;33.90;34.00;;;;;;5046035;28;20215;-93
2022/06/16 14:22:02;;;;;;;7.30;3.88;;;33.90;33.10;;;;;;5049064;28;20204;-94
2022/06/16 14:24:47;;;;;;;6.97;3.70;;;33.90;33.90;;;;;;5048146;28;20746;-96
2022/06/16 14:27:20;;;;;;;6.55;3.28;;;34.00;33.70;;;;;;5031506;28;20216;-94
2022/06/16 14:29:49;;;;;;;7.85;4.25;;;34.00;34.10;;;;;;5046065;28;20230;-94
2022/06/16 14:32:21;;;;;;;9.63;4.60;;;34.00;34.10;;;;;;5051362;28;20732;-93
2022/06/16 14:35:02;;;;;;;4.05;3.10;;;34.10;33.90;;;;;;5051740;28;20208;-94
2022/06/16 14:37:40;;;;;;;5.35;3.25;;;34.20;33.00;;;;;;5047746;28;20215;-94
2022/06/16 14:40:15;;;;;;;8.48;4.60;;;34.20;32.60;;;;;;5052193;28;20234;-93
2022/06/16 14:42:50;;;;;;;10.82;4.97;;;34.20;33.00;;;;;;5051811;28;20207;-93
2022/06/16 14:45:29;;;;;;;6.72;3.90;;;34.20;33.60;;;;;;5054819;28;20247;-93
2022/06/16 14:48:02;;;;;;;7.40;4.70;;;34.30;33.30;;;;;;5041992;28;20207;-94
2022/06/16 15:00:16;;;;;;;6.55;3.65;;;34.40;32.50;;;;;;4967558;28;20227;-96
2022/06/16 15:02:53;;;;;;;6.68;3.20;;;34.30;32.80;;;;;;5010632;28;20190;-96
2022/06/16 15:05:23;;;;;;;4.78;2.88;;;34.20;33.20;;;;;;5010580;28;20225;-96
2022/06/16 15:08:28;;;;;;;5.75;3.30;;;34.20;33.50;;;;;;5069929;28;20200;-96
2022/06/16 15:10:57;;;;;;;4.70;2.95;;;34.20;33.30;;;;;;5049590;28;20200;-96
2022/06/16 15:14:02;;;;;;;6.57;3.03;;;34.20;34.10;;;;;;5066614;28;20660;-96
2022/06/16 15:20:33;;;;;;;5.57;2.70;;;34.20;33.60;;;;;;5048770;28;20200;-96
2022/06/16 15:23:04;;;;;;;3.72;2.25;;;34.20;33.00;;;;;;5044482;28;20292;-96